createdAt,value
2023-04-29T00:01:11.638Z,1.65
2023-04-29T00:06:16.276Z,1.70
2023-04-29T00:11:19.918Z,1.58
2023-04-29T00:16:23.675Z,1.40
2023-04-29T00:21:27.767Z,1.77
2023-04-29T00:26:32.250Z,1.75
2023-04-29T00:31:37.634Z,1.42
2023-04-29T00:36:42.005Z,1.73
2023-04-29T00:41:45.561Z,1.70
2023-04-29T00:46:49.518Z,1.40
2023-04-29T00:51:54.913Z,1.27
2023-04-29T00:57:01.858Z,1.48
2023-04-29T01:02:05.909Z,1.50
2023-04-29T01:07:17.223Z,1.92
2023-04-29T01:12:27.260Z,1.25
2023-04-29T01:17:40.364Z,1.90
2023-04-29T01:22:44.629Z,1.27
2023-04-29T01:28:15.731Z,1.65
2023-04-29T01:34:11.278Z,1.58
2023-04-29T01:39:33.425Z,1.50
2023-04-29T01:44:48.137Z,1.58
2023-04-29T01:49:53.375Z,1.48
2023-04-29T01:54:57.927Z,1.92
2023-04-29T02:00:07.110Z,1.70
2023-04-29T02:05:16.045Z,1.58
2023-04-29T02:10:28.487Z,1.98
2023-04-29T02:15:43.969Z,1.60
2023-04-29T02:20:48.002Z,1.60
2023-04-29T02:25:52.385Z,1.75
2023-04-29T02:30:55.972Z,1.90
2023-04-29T02:35:59.972Z,1.40
2023-04-29T02:41:03.618Z,1.50
2023-04-29T02:46:06.656Z,1.63
2023-04-29T02:51:10.390Z,1.40
2023-04-29T02:56:14.529Z,2.05
2023-04-29T03:01:18.194Z,1.70
2023-04-29T03:06:21.667Z,1.80
2023-04-29T03:11:27.125Z,1.50
2023-04-29T03:16:31.970Z,1.92
2023-04-29T03:21:35.761Z,1.60
2023-04-29T03:26:39.696Z,1.75
2023-04-29T03:31:43.801Z,1.75
2023-04-29T03:36:47.796Z,1.58
2023-04-29T03:41:51.919Z,1.73
2023-04-29T03:46:55.698Z,1.80
2023-04-29T03:52:00.814Z,1.80
2023-04-29T03:57:04.905Z,1.70
2023-04-29T04:02:08.796Z,1.70
2023-04-29T04:07:13.053Z,1.63
2023-04-29T04:12:36.103Z,1.58
2023-04-29T04:17:40.174Z,2.03
2023-04-29T04:22:43.725Z,1.70
2023-04-29T04:28:07.684Z,2.17
2023-04-29T04:33:27.850Z,1.92
2023-04-29T04:38:33.277Z,1.70
2023-04-29T04:43:41.727Z,1.90
2023-04-29T04:48:52.518Z,1.70
2023-04-29T04:53:57.138Z,1.50
2023-04-29T04:59:02.959Z,1.55
2023-04-29T05:04:06.462Z,1.80
2023-04-29T05:09:10.147Z,1.40
2023-04-29T05:14:13.657Z,2.55
2023-04-29T05:19:17.326Z,1.85
2023-04-29T05:24:22.261Z,1.58
2023-04-29T05:29:27.536Z,1.52
2023-04-29T05:34:35.328Z,1.38
2023-04-29T05:39:39.745Z,1.42
2023-04-29T05:44:49.262Z,1.50
2023-04-29T05:49:53.133Z,1.60
2023-04-29T05:54:57.030Z,1.65
2023-04-29T06:00:01.597Z,4.28
2023-04-29T06:05:06.005Z,5.85
2023-04-29T06:15:29.153Z,5.10
2023-04-29T06:20:33.673Z,3.70
2023-04-29T06:25:37.468Z,3.17
2023-04-29T06:30:43.674Z,3.25
2023-04-29T06:35:50.204Z,2.90
2023-04-29T06:41:19.360Z,2.58
2023-04-29T06:46:41.353Z,2.90
2023-04-29T06:51:51.857Z,1.20
2023-04-29T06:56:55.800Z,1.50
2023-04-29T07:01:59.099Z,1.52
2023-04-29T07:07:03.451Z,2.28
2023-04-29T07:12:07.108Z,1.90
2023-04-29T07:17:12.059Z,1.50
2023-04-29T07:22:18.842Z,1.65
2023-04-29T07:27:22.188Z,1.52
2023-04-29T07:32:25.950Z,1.70
2023-04-29T07:37:30.343Z,1.30
2023-04-29T07:42:33.467Z,1.55
2023-04-29T07:47:37.874Z,1.40
2023-04-29T07:52:42.201Z,1.95
2023-04-29T07:57:46.363Z,1.60
2023-04-29T08:02:57.462Z,1.90
2023-04-29T08:08:01.882Z,2.38
2023-04-29T08:13:06.268Z,2.10
2023-04-29T08:18:09.477Z,2.20
2023-04-29T08:23:13.109Z,2.63
2023-04-29T08:28:16.335Z,2.00
2023-04-29T08:33:19.957Z,2.63
2023-04-29T08:38:24.406Z,2.40
2023-04-29T08:43:29.227Z,2.47
2023-04-29T08:48:34.051Z,2.47
2023-04-29T08:53:38.344Z,2.30
2023-04-29T08:58:42.643Z,3.42
2023-04-29T09:03:55.758Z,3.63
2023-04-29T09:09:00.694Z,3.60
2023-04-29T09:14:08.457Z,3.43
2023-04-29T09:19:12.024Z,2.83
2023-04-29T09:24:27.765Z,2.53
2023-04-29T09:34:39.992Z,2.63
2023-04-29T09:39:43.540Z,2.15
2023-04-29T09:44:47.094Z,2.47
2023-04-29T09:49:50.660Z,2.50
2023-04-29T09:55:07.078Z,2.63
2023-04-29T10:00:12.302Z,1.92
2023-04-29T10:05:17.393Z,2.05
2023-04-29T10:10:24.784Z,2.13
2023-04-29T10:15:43.181Z,2.00
2023-04-29T10:20:48.645Z,1.90
2023-04-29T10:31:01.407Z,2.20
2023-04-29T10:36:05.516Z,1.63
2023-04-29T10:41:17.756Z,1.58
2023-04-29T10:46:29.140Z,1.98
2023-04-29T10:51:42.473Z,1.88
2023-04-29T10:56:52.184Z,1.20
2023-04-29T11:01:56.108Z,1.27
2023-04-29T11:06:59.803Z,1.63
2023-04-29T11:12:05.865Z,1.63
2023-04-29T11:17:17.091Z,1.95
2023-04-29T11:22:27.341Z,2.10
2023-04-29T11:27:35.274Z,2.25
2023-04-29T11:32:41.292Z,2.10
2023-04-29T11:37:46.512Z,2.00
2023-04-29T11:42:51.465Z,1.75
2023-04-29T11:47:56.042Z,1.83
2023-04-29T11:52:59.948Z,1.70
2023-04-29T11:58:05.801Z,1.58
2023-04-29T12:03:22.648Z,1.50
2023-04-29T12:08:29.056Z,1.17
2023-04-29T12:13:35.843Z,1.60
2023-04-29T12:18:40.326Z,1.58
2023-04-29T12:23:43.413Z,1.70
2023-04-29T12:28:49.323Z,1.48
2023-04-29T12:33:55.712Z,1.73
2023-04-29T12:39:00.528Z,1.40
2023-04-29T12:44:06.171Z,1.48
2023-04-29T12:49:09.310Z,1.40
2023-04-29T12:54:12.948Z,1.40
2023-04-29T12:59:17.491Z,2.40
2023-04-29T13:04:20.805Z,1.77
2023-04-29T13:09:24.849Z,2.00
2023-04-29T13:14:29.265Z,2.00
2023-04-29T13:19:48.134Z,1.60
2023-04-29T13:24:54.831Z,1.95
2023-04-29T13:29:58.632Z,1.98
2023-04-29T13:35:02.357Z,1.98
2023-04-29T13:40:08.265Z,1.63
2023-04-29T13:45:15.547Z,1.70
2023-04-29T13:51:03.969Z,1.80
2023-04-29T14:01:05.947Z,1.80
2023-04-29T14:06:16.846Z,2.10
2023-04-29T14:16:24.408Z,1.80
2023-04-29T14:21:28.745Z,1.60
2023-04-29T14:26:32.386Z,1.95
2023-04-29T14:31:38.534Z,1.92
2023-04-29T14:36:43.833Z,1.92
2023-04-29T14:41:48.989Z,1.90
2023-04-29T14:46:52.651Z,1.90
2023-04-29T14:51:56.080Z,1.80
2023-04-29T14:57:00.269Z,2.10
2023-04-29T15:02:04.533Z,1.55
2023-04-29T15:07:08.192Z,1.38
2023-04-29T15:12:12.060Z,1.23
2023-04-29T15:17:15.846Z,1.30
2023-04-29T15:22:19.360Z,1.88
2023-04-29T15:27:22.975Z,2.10
2023-04-29T15:32:31.708Z,1.75
2023-04-29T15:37:35.816Z,1.40
2023-04-29T15:42:39.779Z,1.60
2023-04-29T15:47:43.469Z,1.77
2023-04-29T15:52:47.137Z,2.28
2023-04-29T15:57:51.756Z,3.22
2023-04-29T16:02:56.146Z,3.37
2023-04-29T16:07:59.673Z,2.33
2023-04-29T16:13:04.653Z,1.77
2023-04-29T16:18:09.201Z,2.00
2023-04-29T16:23:12.494Z,3.55
2023-04-29T16:28:16.508Z,2.08
2023-04-29T16:33:20.392Z,1.83
2023-04-29T16:38:24.428Z,1.65
2023-04-29T16:43:27.892Z,1.85
2023-04-29T16:48:31.726Z,1.75
2023-04-29T16:53:35.117Z,2.35
2023-04-29T16:58:39.982Z,1.70
2023-04-29T17:03:44.501Z,2.33
2023-04-29T17:08:50.784Z,2.08
2023-04-29T17:13:56.004Z,1.95
2023-04-29T17:19:00.860Z,2.17
2023-04-29T17:24:04.924Z,2.20
2023-04-29T17:29:09.218Z,2.30
2023-04-29T17:34:33.666Z,2.42
2023-04-29T17:39:37.063Z,1.70
2023-04-29T17:44:40.728Z,2.00
2023-04-29T17:49:47.107Z,2.40
2023-04-29T17:54:50.319Z,2.45
2023-04-29T17:59:53.653Z,2.42
2023-04-29T18:04:56.905Z,2.83
2023-04-29T18:09:59.900Z,3.00
2023-04-29T18:15:06.390Z,3.28
2023-04-29T18:20:10.615Z,3.08
2023-04-29T18:25:16.732Z,3.08
2023-04-29T18:30:20.228Z,3.40
2023-04-29T18:35:23.988Z,2.83
2023-04-29T18:40:27.464Z,2.15
2023-04-29T18:45:31.399Z,2.35
2023-04-29T18:50:35.013Z,2.60
2023-04-29T18:55:38.142Z,2.05
2023-04-29T19:00:42.262Z,2.03
2023-04-29T19:05:46.188Z,2.47
2023-04-29T19:10:50.383Z,2.13
2023-04-29T19:15:55.633Z,2.00
2023-04-29T19:20:59.361Z,2.78
2023-04-29T19:26:03.021Z,2.88
2023-04-29T19:31:06.544Z,2.58
2023-04-29T19:36:11.769Z,2.92
2023-04-29T19:41:16.050Z,2.45
2023-04-29T19:46:19.897Z,3.08
2023-04-29T19:51:23.917Z,2.50
2023-04-29T19:56:28.350Z,2.90
2023-04-29T20:01:32.174Z,2.35
2023-04-29T20:06:37.809Z,2.60
2023-04-29T20:11:41.619Z,3.60
2023-04-29T20:16:45.666Z,3.22
2023-04-29T20:21:49.583Z,2.78
2023-04-29T20:26:53.574Z,2.88
2023-04-29T20:31:57.670Z,2.40
2023-04-29T20:37:01.698Z,2.60
2023-04-29T20:42:07.186Z,2.60
2023-04-29T20:47:11.184Z,2.63
2023-04-29T20:52:14.721Z,2.08
2023-04-29T20:57:18.338Z,3.05
2023-04-29T21:02:21.833Z,2.90
2023-04-29T21:07:26.001Z,2.72
2023-04-29T21:12:30.350Z,2.85
2023-04-29T21:17:34.458Z,3.03
2023-04-29T21:22:37.735Z,2.47
2023-04-29T21:27:41.686Z,2.10
2023-04-29T21:32:48.515Z,2.22
2023-04-29T21:37:52.349Z,1.80
2023-04-29T21:42:58.192Z,2.15
2023-04-29T21:48:16.097Z,1.95
2023-04-29T21:53:20.380Z,2.80
2023-04-29T21:58:24.401Z,1.95
2023-04-29T22:03:28.759Z,1.58
2023-04-29T22:08:32.572Z,2.00
2023-04-29T22:13:36.367Z,1.90
2023-04-29T22:18:39.734Z,1.88
2023-04-29T22:23:43.603Z,1.55
2023-04-29T22:28:47.076Z,1.80
2023-04-29T22:33:51.557Z,1.90
2023-04-29T22:38:55.272Z,1.52
2023-04-29T22:43:59.021Z,1.52
2023-04-29T22:49:03.312Z,1.85
2023-04-29T22:54:08.348Z,1.73
2023-04-29T22:59:12.850Z,2.90
2023-04-29T23:04:16.477Z,2.10
2023-04-29T23:09:20.476Z,2.45
2023-04-29T23:14:24.024Z,1.95
2023-04-29T23:19:27.479Z,2.13
2023-04-29T23:24:31.141Z,1.98
2023-04-29T23:29:34.815Z,2.20
2023-04-29T23:34:38.640Z,2.15
2023-04-29T23:39:42.213Z,1.85
2023-04-29T23:44:46.789Z,1.95
2023-04-29T23:49:50.675Z,1.75
2023-04-29T23:54:53.775Z,1.83
2023-04-29T23:59:57.320Z,1.77
